Etusivu
METAR-TAF:

METAR-TAF

Lentoasemat :

Athens, Tennessee, Yhdysvallat

Leveyspiiri: 35-23-50N, Pituuspiiri: 084-33-45W, korkeus merenpinnasta: 262 m

Tämänhetkinen sää

Tämä raportti tehtiin 34 minuuttia sitten, kello 09.55 UTC
Tuuli 6 kn koillisesta
Lämpötila 2°C
Kosteus 100%
Ilmanpaine 1019 hPa
Näkyvyys: 14.5 km
Pilvistä 1000 ft:n korkeudessa

METAR: KMMI 100955Z AUTO 04006KT 9SM OVC010 02/02 A3010 RMK A01 P0003

Aika: 04:29 (10:29 UTC)


TAF: puuttuu

Säähavainnot ja -ennusteet yli 4000 lentoasemalta (METAR- ja TAF-raportit).

Käytössä olevat sääasemat on merkitty karttaan keltaisilla ja punaisilla pisteillä.

Aseta hiiri pisteen päälle nähdäksesi sääaseman nimen.

Klikkaa sitten nähdäksesi säähavainnot ja -ennusteet.

Kartan vaihtaminen: klikkaa mustalla rastilla varustettuja vihreitä pisteitä, niin voit zoomata sisään; viivalla varustettua vihreää pistettä, niin voit zoomata ulos tai vihreitä nuolia, niin pääset viereisille kartoille.


METAR-TAF: